Merced, CA

12:14 PM PST en Diciembre 18, 2014 (GMT -0800)
Merced Municipal-Macready | Change Station
CLOSE
Current Station
Aeropuerto
Location: Merced,
Altura: 154 ft
Estaciones meteorológicas cercanas

Alt 154 ft 37.28 °N, 120.51 °W | Updated 21 minutes ago

Despejado
Despejado
58 ° F
Sensación térmica 58 ° F
N
8
Viento Variable Viento desde SE

Hoy
Alta -- | Baja -- ° F
--% Posibilidad de precipitaciones
Ayer
Alta -- | Baja -- ° F
Precip. -- pul
7:10 AM 4:46 PM
Creciente menguante, 12% visible
Presión 30.20 pul
Visibilidad 10.0 Millas
Nubes Nubes dispersas 3800 ft
Punto de rocío 47 ° F
Humedad 67%
Precipitaciones 0.01 pul
Espesor de la nieve No disponible.
UV 2 de una escala de 12
Polen 1.80 de una escala de 12
Calidad del aire No disponible.
Flu Activity No disponible.
METAR KMCE 181953Z AUTO 14007KT 10SM SCT038 14/08 A3020 RMK AO2 SLP225 T01440083

More Conditions Fewer Conditions

Presión 30.20 pul
Visibilidad 10.0 Millas
Nubes Nubes dispersas 3800 ft
Punto de rocío 47 ° F
Humedad 67%
Precipitaciones 0.01 pul
Espesor de la nieve No disponible.
UV 2 de una escala de 12
Polen 1.80 de una escala de 12
Calidad del aire No disponible.
Flu Activity No disponible.
METAR KMCE 181953Z AUTO 14007KT 10SM SCT038 14/08 A3020 RMK AO2 SLP225 T01440083

More Conditions Fewer Conditions

10-Day Weather Forecast

Almanac

Astronomía

Dec. 18, 2014 Salida Puesta
Hora real
Crepúsculo civil
Crepúsculo náutico
Crepúsculo astronómico
Luna
Horas de luz
Horas de luz
Tomorrow will be .
, % of the Moon is Illuminated

Extremos de hoy

Máximos del estado Bajos del estado

Community

WunderPhotos

Upload Photos

1,778,992 ¡fotos cargadas!

WunderBlogs® & News

Nearby

Calidad del aire

  Calidad del aire Índice AQ Contaminante
Not available.

Grosos de nieve

Estación Profundido Altura

Actividad de terremotos

Ciudad Distance Mag. Tiempo y dato
Magnitud mínima muestra es 2,5.

Temperaturas de aguas costeras

Lugar Temperatura

Estaciones meteorológicas cercanas